sensor_id;sensor_type;location;lat;lon;timestamp;pressure;altitude;pressure_sealevel;temperature;humidity
54808;BME280;40708;50.364;7.550;2023-07-13T00:01:28;100414.09;;;19.52;100.00
54808;BME280;40708;50.364;7.550;2023-07-13T00:03:54;100409.78;;;19.48;100.00
54808;BME280;40708;50.364;7.550;2023-07-13T00:06:20;100407.44;;;19.37;100.00
54808;BME280;40708;50.364;7.550;2023-07-13T00:08:45;100407.56;;;19.34;100.00
54808;BME280;40708;50.364;7.550;2023-07-13T00:11:12;100411.38;;;19.27;100.00
54808;BME280;40708;50.364;7.550;2023-07-13T00:13:37;100408.16;;;19.18;100.00
54808;BME280;40708;50.364;7.550;2023-07-13T00:16:04;100401.28;;;19.09;100.00
54808;BME280;40708;50.364;7.550;2023-07-13T00:18:29;100409.88;;;18.94;100.00
54808;BME280;40708;50.364;7.550;2023-07-13T00:20:55;100410.34;;;18.80;100.00
54808;BME280;40708;50.364;7.550;2023-07-13T00:23:21;100415.13;;;18.72;100.00
54808;BME280;40708;50.364;7.550;2023-07-13T00:25:46;100413.88;;;18.56;100.00
54808;BME280;40708;50.364;7.550;2023-07-13T00:28:11;100426.72;;;18.45;100.00
54808;BME280;40708;50.364;7.550;2023-07-13T00:30:36;100419.84;;;18.35;100.00
54808;BME280;40708;50.364;7.550;2023-07-13T00:33:02;100417.44;;;18.27;100.00
54808;BME280;40708;50.364;7.550;2023-07-13T00:35:30;100417.84;;;18.14;100.00
54808;BME280;40708;50.364;7.550;2023-07-13T00:37:55;100431.66;;;18.02;100.00
54808;BME280;40708;50.364;7.550;2023-07-13T00:40:21;100441.94;;;17.88;100.00
54808;BME280;40708;50.364;7.550;2023-07-13T00:42:46;100441.44;;;17.73;100.00
54808;BME280;40708;50.364;7.550;2023-07-13T00:47:38;100463.72;;;17.43;100.00
54808;BME280;40708;50.364;7.550;2023-07-13T00:50:05;100482.84;;;17.31;100.00
54808;BME280;40708;50.364;7.550;2023-07-13T00:52:31;100489.47;;;17.16;100.00
54808;BME280;40708;50.364;7.550;2023-07-13T00:54:57;100495.19;;;17.01;100.00
54808;BME280;40708;50.364;7.550;2023-07-13T00:57:23;100511.63;;;16.88;100.00
54808;BME280;40708;50.364;7.550;2023-07-13T00:59:52;100514.41;;;16.83;100.00
54808;BME280;40708;50.364;7.550;2023-07-13T01:02:19;100507.34;;;16.81;100.00
54808;BME280;40708;50.364;7.550;2023-07-13T01:04:44;100502.03;;;16.78;100.00
54808;BME280;40708;50.364;7.550;2023-07-13T01:07:10;100493.13;;;16.77;100.00
54808;BME280;40708;50.364;7.550;2023-07-13T01:09:36;100478.69;;;16.83;100.00
54808;BME280;40708;50.364;7.550;2023-07-13T01:12:01;100480.28;;;16.91;100.00
54808;BME280;40708;50.364;7.550;2023-07-13T01:14:27;100483.16;;;16.84;100.00
54808;BME280;40708;50.364;7.550;2023-07-13T01:16:53;100479.72;;;16.79;100.00
54808;BME280;40708;50.364;7.550;2023-07-13T01:22:02;100477.22;;;16.71;100.00
54808;BME280;40708;50.364;7.550;2023-07-13T01:24:28;100470.22;;;16.64;100.00
54808;BME280;40708;50.364;7.550;2023-07-13T01:26:53;100470.34;;;16.59;100.00
54808;BME280;40708;50.364;7.550;2023-07-13T01:29:18;100469.50;;;16.57;100.00
54808;BME280;40708;50.364;7.550;2023-07-13T01:31:44;100467.81;;;16.52;100.00
54808;BME280;40708;50.364;7.550;2023-07-13T01:34:09;100465.22;;;16.49;100.00
54808;BME280;40708;50.364;7.550;2023-07-13T01:36:35;100463.50;;;16.46;100.00
54808;BME280;40708;50.364;7.550;2023-07-13T01:39:01;100470.66;;;16.44;100.00
54808;BME280;40708;50.364;7.550;2023-07-13T01:41:26;100458.06;;;16.49;100.00
54808;BME280;40708;50.364;7.550;2023-07-13T01:43:52;100451.78;;;16.50;100.00
54808;BME280;40708;50.364;7.550;2023-07-13T01:46:17;100456.44;;;16.42;100.00
54808;BME280;40708;50.364;7.550;2023-07-13T01:48:42;100471.72;;;16.37;100.00
54808;BME280;40708;50.364;7.550;2023-07-13T01:51:07;100473.63;;;16.31;100.00
54808;BME280;40708;50.364;7.550;2023-07-13T01:53:33;100478.16;;;16.30;100.00
54808;BME280;40708;50.364;7.550;2023-07-13T01:55:58;100477.34;;;16.25;100.00
54808;BME280;40708;50.364;7.550;2023-07-13T01:58:23;100469.41;;;16.22;100.00
54808;BME280;40708;50.364;7.550;2023-07-13T02:00:49;100477.63;;;16.13;100.00
54808;BME280;40708;50.364;7.550;2023-07-13T02:03:15;100483.97;;;16.07;100.00
54808;BME280;40708;50.364;7.550;2023-07-13T02:05:43;100486.84;;;16.00;100.00
54808;BME280;40708;50.364;7.550;2023-07-13T02:08:08;100495.94;;;15.90;100.00
54808;BME280;40708;50.364;7.550;2023-07-13T02:10:34;100505.91;;;15.83;100.00
54808;BME280;40708;50.364;7.550;2023-07-13T02:12:59;100513.09;;;15.81;100.00
54808;BME280;40708;50.364;7.550;2023-07-13T02:15:24;100513.09;;;15.80;100.00
54808;BME280;40708;50.364;7.550;2023-07-13T02:17:50;100523.00;;;15.75;100.00
54808;BME280;40708;50.364;7.550;2023-07-13T02:20:15;100524.88;;;15.70;100.00
54808;BME280;40708;50.364;7.550;2023-07-13T02:22:40;100531.25;;;15.64;100.00
54808;BME280;40708;50.364;7.550;2023-07-13T02:25:06;100534.94;;;15.57;100.00
54808;BME280;40708;50.364;7.550;2023-07-13T02:27:31;100543.88;;;15.55;100.00
54808;BME280;40708;50.364;7.550;2023-07-13T02:29:57;100547.47;;;15.54;100.00
54808;BME280;40708;50.364;7.550;2023-07-13T02:32:22;100543.97;;;15.50;100.00
54808;BME280;40708;50.364;7.550;2023-07-13T02:34:47;100553.84;;;15.45;100.00
54808;BME280;40708;50.364;7.550;2023-07-13T02:37:13;100550.38;;;15.38;100.00
54808;BME280;40708;50.364;7.550;2023-07-13T02:39:38;100562.00;;;15.37;100.00
54808;BME280;40708;50.364;7.550;2023-07-13T02:42:04;100566.47;;;15.37;100.00
54808;BME280;40708;50.364;7.550;2023-07-13T02:44:29;100570.16;;;15.30;100.00
54808;BME280;40708;50.364;7.550;2023-07-13T02:46:54;100568.19;;;15.39;100.00
54808;BME280;40708;50.364;7.550;2023-07-13T02:49:20;100566.50;;;15.35;100.00
54808;BME280;40708;50.364;7.550;2023-07-13T02:51:45;100572.75;;;15.33;100.00
54808;BME280;40708;50.364;7.550;2023-07-13T02:54:10;100577.25;;;15.31;100.00
54808;BME280;40708;50.364;7.550;2023-07-13T02:56:37;100571.91;;;15.32;100.00
54808;BME280;40708;50.364;7.550;2023-07-13T02:59:04;100572.84;;;15.28;100.00
54808;BME280;40708;50.364;7.550;2023-07-13T03:01:29;100575.38;;;15.37;100.00
54808;BME280;40708;50.364;7.550;2023-07-13T03:03:54;100567.34;;;15.36;100.00
54808;BME280;40708;50.364;7.550;2023-07-13T03:06:21;100565.66;;;15.30;100.00
54808;BME280;40708;50.364;7.550;2023-07-13T03:08:47;100577.19;;;15.35;100.00
54808;BME280;40708;50.364;7.550;2023-07-13T03:11:16;100574.53;;;15.34;100.00
54808;BME280;40708;50.364;7.550;2023-07-13T03:13:42;100571.84;;;15.34;100.00
54808;BME280;40708;50.364;7.550;2023-07-13T03:16:08;100577.25;;;15.32;100.00
54808;BME280;40708;50.364;7.550;2023-07-13T03:18:35;100572.88;;;15.25;100.00
54808;BME280;40708;50.364;7.550;2023-07-13T03:21:00;100581.00;;;15.21;100.00
54808;BME280;40708;50.364;7.550;2023-07-13T03:23:25;100587.31;;;15.14;100.00
54808;BME280;40708;50.364;7.550;2023-07-13T03:26:01;100597.16;;;15.12;100.00
54808;BME280;40708;50.364;7.550;2023-07-13T03:28:26;100599.88;;;15.10;100.00
54808;BME280;40708;50.364;7.550;2023-07-13T03:30:59;100612.34;;;15.10;100.00
54808;BME280;40708;50.364;7.550;2023-07-13T03:33:25;100617.66;;;15.11;100.00
54808;BME280;40708;50.364;7.550;2023-07-13T03:35:50;100624.72;;;15.15;100.00
54808;BME280;40708;50.364;7.550;2023-07-13T03:38:15;100632.78;;;15.12;100.00
54808;BME280;40708;50.364;7.550;2023-07-13T03:40:41;100634.56;;;15.13;100.00
54808;BME280;40708;50.364;7.550;2023-07-13T03:43:06;100643.44;;;15.15;100.00
54808;BME280;40708;50.364;7.550;2023-07-13T03:45:32;100640.75;;;15.15;100.00
54808;BME280;40708;50.364;7.550;2023-07-13T03:47:57;100645.94;;;15.26;100.00
54808;BME280;40708;50.364;7.550;2023-07-13T03:50:22;100643.00;;;15.42;100.00
54808;BME280;40708;50.364;7.550;2023-07-13T03:52:47;100627.66;;;15.57;100.00
54808;BME280;40708;50.364;7.550;2023-07-13T03:55:13;100621.94;;;15.76;100.00
54808;BME280;40708;50.364;7.550;2023-07-13T03:57:38;100604.72;;;15.91;100.00
54808;BME280;40708;50.364;7.550;2023-07-13T04:00:03;100596.38;;;16.07;100.00
54808;BME280;40708;50.364;7.550;2023-07-13T04:02:31;100588.91;;;16.25;100.00
54808;BME280;40708;50.364;7.550;2023-07-13T04:04:56;100578.75;;;16.40;100.00
54808;BME280;40708;50.364;7.550;2023-07-13T04:07:21;100574.69;;;16.64;100.00
54808;BME280;40708;50.364;7.550;2023-07-13T04:09:46;100569.53;;;16.95;100.00
54808;BME280;40708;50.364;7.550;2023-07-13T04:12:12;100547.75;;;17.08;100.00
54808;BME280;40708;50.364;7.550;2023-07-13T04:14:37;100525.81;;;17.28;100.00
54808;BME280;40708;50.364;7.550;2023-07-13T04:17:02;100521.59;;;17.52;100.00
54808;BME280;40708;50.364;7.550;2023-07-13T04:19:28;100509.19;;;17.81;100.00
54808;BME280;40708;50.364;7.550;2023-07-13T04:21:53;100516.78;;;17.98;100.00
54808;BME280;40708;50.364;7.550;2023-07-13T04:24:18;100516.13;;;18.19;100.00
54808;BME280;40708;50.364;7.550;2023-07-13T04:26:44;100511.25;;;18.33;100.00
54808;BME280;40708;50.364;7.550;2023-07-13T04:29:09;100498.31;;;18.46;100.00
54808;BME280;40708;50.364;7.550;2023-07-13T04:31:34;100487.44;;;18.78;100.00
54808;BME280;40708;50.364;7.550;2023-07-13T04:34:00;100479.69;;;19.23;100.00
54808;BME280;40708;50.364;7.550;2023-07-13T04:36:25;100477.16;;;19.45;100.00
54808;BME280;40708;50.364;7.550;2023-07-13T04:38:52;100471.31;;;19.57;100.00
54808;BME280;40708;50.364;7.550;2023-07-13T04:41:19;100472.38;;;20.01;100.00
54808;BME280;40708;50.364;7.550;2023-07-13T04:43:44;100473.41;;;20.22;100.00
54808;BME280;40708;50.364;7.550;2023-07-13T04:46:12;100474.75;;;20.33;100.00
54808;BME280;40708;50.364;7.550;2023-07-13T04:48:37;100476.06;;;20.46;100.00
54808;BME280;40708;50.364;7.550;2023-07-13T04:51:03;100463.84;;;20.59;100.00
54808;BME280;40708;50.364;7.550;2023-07-13T04:53:30;100473.00;;;20.77;100.00
54808;BME280;40708;50.364;7.550;2023-07-13T04:55:55;100469.97;;;21.06;100.00
54808;BME280;40708;50.364;7.550;2023-07-13T04:58:22;100463.41;;;21.33;100.00
54808;BME280;40708;50.364;7.550;2023-07-13T05:00:47;100458.94;;;21.54;100.00
54808;BME280;40708;50.364;7.550;2023-07-13T05:03:13;100458.97;;;21.53;100.00
54808;BME280;40708;50.364;7.550;2023-07-13T05:05:38;100461.84;;;21.50;100.00
54808;BME280;40708;50.364;7.550;2023-07-13T05:08:04;100461.94;;;21.26;100.00
54808;BME280;40708;50.364;7.550;2023-07-13T05:10:29;100465.88;;;21.60;100.00
54808;BME280;40708;50.364;7.550;2023-07-13T05:12:54;100457.06;;;21.75;100.00
54808;BME280;40708;50.364;7.550;2023-07-13T05:15:22;100444.25;;;22.37;100.00
54808;BME280;40708;50.364;7.550;2023-07-13T05:17:48;100444.34;;;22.17;100.00
54808;BME280;40708;50.364;7.550;2023-07-13T05:20:15;100460.16;;;21.86;100.00
54808;BME280;40708;50.364;7.550;2023-07-13T05:22:41;100456.19;;;22.33;100.00
54808;BME280;40708;50.364;7.550;2023-07-13T05:25:06;100457.91;;;22.34;100.00
54808;BME280;40708;50.364;7.550;2023-07-13T05:27:33;100460.25;;;22.23;100.00
54808;BME280;40708;50.364;7.550;2023-07-13T05:29:58;100458.25;;;22.66;100.00
54808;BME280;40708;50.364;7.550;2023-07-13T05:32:24;100467.19;;;22.29;100.00
54808;BME280;40708;50.364;7.550;2023-07-13T05:34:49;100473.03;;;22.01;100.00
54808;BME280;40708;50.364;7.550;2023-07-13T05:37:14;100476.66;;;21.80;100.00
54808;BME280;40708;50.364;7.550;2023-07-13T05:39:39;100483.59;;;21.87;100.00
54808;BME280;40708;50.364;7.550;2023-07-13T05:42:05;100480.03;;;21.65;100.00
54808;BME280;40708;50.364;7.550;2023-07-13T05:44:31;100477.09;;;22.10;100.00
54808;BME280;40708;50.364;7.550;2023-07-13T05:46:56;100486.16;;;21.90;100.00
54808;BME280;40708;50.364;7.550;2023-07-13T05:49:23;100483.94;;;22.37;100.00
54808;BME280;40708;50.364;7.550;2023-07-13T05:51:48;100494.75;;;21.78;100.00
54808;BME280;40708;50.364;7.550;2023-07-13T05:54:13;100490.28;;;21.77;100.00
54808;BME280;40708;50.364;7.550;2023-07-13T05:56:39;100493.53;;;21.65;100.00
54808;BME280;40708;50.364;7.550;2023-07-13T05:59:04;100485.13;;;21.52;100.00
54808;BME280;40708;50.364;7.550;2023-07-13T06:01:30;100500.94;;;21.80;100.00
54808;BME280;40708;50.364;7.550;2023-07-13T06:03:56;100502.22;;;21.93;100.00
54808;BME280;40708;50.364;7.550;2023-07-13T06:06:21;100496.66;;;21.96;100.00
54808;BME280;40708;50.364;7.550;2023-07-13T06:08:46;100505.44;;;22.01;100.00
54808;BME280;40708;50.364;7.550;2023-07-13T06:11:18;100500.97;;;22.39;100.00
54808;BME280;40708;50.364;7.550;2023-07-13T06:13:43;100494.03;;;23.25;100.00
54808;BME280;40708;50.364;7.550;2023-07-13T06:16:09;100497.69;;;22.70;100.00
54808;BME280;40708;50.364;7.550;2023-07-13T06:18:35;100490.00;;;22.98;100.00
54808;BME280;40708;50.364;7.550;2023-07-13T06:21:08;100489.69;;;23.57;100.00
54808;BME280;40708;50.364;7.550;2023-07-13T06:23:34;100496.44;;;22.95;100.00
54808;BME280;40708;50.364;7.550;2023-07-13T06:25:59;100502.84;;;23.11;100.00
54808;BME280;40708;50.364;7.550;2023-07-13T06:28:24;100499.16;;;23.48;100.00
54808;BME280;40708;50.364;7.550;2023-07-13T06:30:50;100500.34;;;23.77;100.00
54808;BME280;40708;50.364;7.550;2023-07-13T06:33:15;100501.78;;;24.34;100.00
54808;BME280;40708;50.364;7.550;2023-07-13T06:35:40;100495.22;;;24.38;99.34
54808;BME280;40708;50.364;7.550;2023-07-13T06:38:06;100501.09;;;23.81;100.00
54808;BME280;40708;50.364;7.550;2023-07-13T06:40:31;100499.19;;;24.64;99.65
54808;BME280;40708;50.364;7.550;2023-07-13T06:42:56;100505.81;;;24.91;96.03
54808;BME280;40708;50.364;7.550;2023-07-13T06:45:23;100493.19;;;25.06;91.30
54808;BME280;40708;50.364;7.550;2023-07-13T06:47:48;100496.97;;;25.33;86.44
54808;BME280;40708;50.364;7.550;2023-07-13T06:50:14;100495.66;;;25.40;85.34
54808;BME280;40708;50.364;7.550;2023-07-13T06:52:39;100496.78;;;25.36;86.31
54808;BME280;40708;50.364;7.550;2023-07-13T06:55:05;100489.84;;;26.48;81.17
54808;BME280;40708;50.364;7.550;2023-07-13T06:57:30;100487.34;;;26.72;76.88
54808;BME280;40708;50.364;7.550;2023-07-13T06:59:56;100488.66;;;26.66;71.84
54808;BME280;40708;50.364;7.550;2023-07-13T07:02:21;100495.91;;;26.09;74.56
54808;BME280;40708;50.364;7.550;2023-07-13T07:04:46;100504.41;;;25.45;81.09
54808;BME280;40708;50.364;7.550;2023-07-13T07:07:12;100491.97;;;26.43;75.33
54808;BME280;40708;50.364;7.550;2023-07-13T07:09:37;100485.66;;;26.42;74.73
54808;BME280;40708;50.364;7.550;2023-07-13T07:12:02;100495.72;;;26.12;76.89
54808;BME280;40708;50.364;7.550;2023-07-13T07:14:28;100495.41;;;25.29;84.08
54808;BME280;40708;50.364;7.550;2023-07-13T07:16:54;100499.16;;;25.72;77.69
54808;BME280;40708;50.364;7.550;2023-07-13T07:19:19;100500.84;;;26.32;75.36
54808;BME280;40708;50.364;7.550;2023-07-13T07:21:45;100494.53;;;27.01;69.40
54808;BME280;40708;50.364;7.550;2023-07-13T07:24:10;100501.78;;;26.59;72.31
54808;BME280;40708;50.364;7.550;2023-07-13T07:26:35;100486.28;;;27.68;62.30
54808;BME280;40708;50.364;7.550;2023-07-13T07:29:01;100497.69;;;27.34;64.39
54808;BME280;40708;50.364;7.550;2023-07-13T07:31:26;100490.84;;;27.55;63.62
54808;BME280;40708;50.364;7.550;2023-07-13T07:33:51;100484.44;;;27.15;65.49
54808;BME280;40708;50.364;7.550;2023-07-13T07:36:17;100492.28;;;27.73;61.68
54808;BME280;40708;50.364;7.550;2023-07-13T07:38:43;100488.03;;;27.82;63.04
54808;BME280;40708;50.364;7.550;2023-07-13T07:41:08;100496.69;;;28.14;62.04
54808;BME280;40708;50.364;7.550;2023-07-13T07:43:34;100497.00;;;28.47;56.87
54808;BME280;40708;50.364;7.550;2023-07-13T07:45:59;100494.69;;;28.54;59.12
54808;BME280;40708;50.364;7.550;2023-07-13T07:48:24;100482.22;;;29.59;52.70
54808;BME280;40708;50.364;7.550;2023-07-13T07:50:50;100475.53;;;30.08;49.30
54808;BME280;40708;50.364;7.550;2023-07-13T07:53:15;100474.44;;;30.44;46.29
54808;BME280;40708;50.364;7.550;2023-07-13T07:55:40;100478.25;;;29.97;45.30
54808;BME280;40708;50.364;7.550;2023-07-13T07:58:06;100489.19;;;28.91;48.03
54808;BME280;40708;50.364;7.550;2023-07-13T08:00:31;100479.06;;;29.52;49.07
54808;BME280;40708;50.364;7.550;2023-07-13T08:02:58;100474.28;;;29.19;47.94
54808;BME280;40708;50.364;7.550;2023-07-13T08:05:23;100485.78;;;28.39;48.43
54808;BME280;40708;50.364;7.550;2023-07-13T08:07:48;100492.53;;;27.17;51.01
54808;BME280;40708;50.364;7.550;2023-07-13T08:10:14;100482.22;;;26.67;53.22
54808;BME280;40708;50.364;7.550;2023-07-13T08:12:40;100480.72;;;26.49;54.29
54808;BME280;40708;50.364;7.550;2023-07-13T08:15:09;100470.94;;;27.14;53.59
54808;BME280;40708;50.364;7.550;2023-07-13T08:17:34;100460.88;;;27.81;50.42
54808;BME280;40708;50.364;7.550;2023-07-13T08:20:00;100479.56;;;27.20;50.92
54808;BME280;40708;50.364;7.550;2023-07-13T08:22:26;100471.78;;;27.29;52.51
54808;BME280;40708;50.364;7.550;2023-07-13T08:24:52;100460.81;;;27.43;49.99
54808;BME280;40708;50.364;7.550;2023-07-13T08:27:24;100475.69;;;27.37;51.54
54808;BME280;40708;50.364;7.550;2023-07-13T08:29:50;100470.25;;;26.70;55.02
54808;BME280;40708;50.364;7.550;2023-07-13T08:32:16;100469.25;;;27.26;52.58
54808;BME280;40708;50.364;7.550;2023-07-13T08:34:43;100465.88;;;27.35;51.68
54808;BME280;40708;50.364;7.550;2023-07-13T08:37:08;100467.47;;;28.28;49.14
54808;BME280;40708;50.364;7.550;2023-07-13T08:39:34;100469.22;;;28.17;48.64
54808;BME280;40708;50.364;7.550;2023-07-13T08:42:02;100474.44;;;26.89;51.38
54808;BME280;40708;50.364;7.550;2023-07-13T08:45:12;100470.91;;;27.01;51.57
54808;BME280;40708;50.364;7.550;2023-07-13T08:47:42;100469.28;;;27.38;48.97
54808;BME280;40708;50.364;7.550;2023-07-13T08:50:13;100466.03;;;27.06;51.15
54808;BME280;40708;50.364;7.550;2023-07-13T08:52:41;100482.94;;;26.42;52.22
54808;BME280;40708;50.364;7.550;2023-07-13T08:55:22;100464.47;;;27.02;51.54
54808;BME280;40708;50.364;7.550;2023-07-13T08:58:00;100461.66;;;26.63;53.84
54808;BME280;40708;50.364;7.550;2023-07-13T09:00:55;100467.06;;;27.45;51.39
54808;BME280;40708;50.364;7.550;2023-07-13T09:03:30;100460.09;;;27.66;48.92
54808;BME280;40708;50.364;7.550;2023-07-13T09:06:02;100462.44;;;27.45;48.90
54808;BME280;40708;50.364;7.550;2023-07-13T09:11:20;100455.66;;;27.77;49.87
54808;BME280;40708;50.364;7.550;2023-07-13T09:14:05;100449.56;;;28.73;46.46
54808;BME280;40708;50.364;7.550;2023-07-13T09:16:32;100456.28;;;27.68;45.33
54808;BME280;40708;50.364;7.550;2023-07-13T09:19:02;100457.97;;;28.09;46.74
54808;BME280;40708;50.364;7.550;2023-07-13T09:21:33;100462.19;;;27.88;47.21
54808;BME280;40708;50.364;7.550;2023-07-13T09:24:22;100451.97;;;28.04;46.85
54808;BME280;40708;50.364;7.550;2023-07-13T09:26:51;100450.63;;;27.84;46.32
54808;BME280;40708;50.364;7.550;2023-07-13T09:29:33;100453.44;;;27.45;47.63
54808;BME280;40708;50.364;7.550;2023-07-13T09:32:04;100459.69;;;27.97;46.64
54808;BME280;40708;50.364;7.550;2023-07-13T09:34:33;100462.50;;;27.70;46.08
54808;BME280;40708;50.364;7.550;2023-07-13T09:36:58;100446.41;;;27.01;47.30
54808;BME280;40708;50.364;7.550;2023-07-13T09:39:30;100458.38;;;27.38;48.24
54808;BME280;40708;50.364;7.550;2023-07-13T09:42:14;100452.84;;;27.13;47.67
54808;BME280;40708;50.364;7.550;2023-07-13T09:47:21;100452.91;;;27.65;46.59
54808;BME280;40708;50.364;7.550;2023-07-13T09:50:07;100456.69;;;26.96;46.83
54808;BME280;40708;50.364;7.550;2023-07-13T09:52:47;100442.28;;;27.48;45.97
54808;BME280;40708;50.364;7.550;2023-07-13T09:55:30;100456.94;;;27.33;46.71
54808;BME280;40708;50.364;7.550;2023-07-13T09:57:56;100454.06;;;27.48;46.28
54808;BME280;40708;50.364;7.550;2023-07-13T10:00:27;100446.94;;;27.85;45.45
54808;BME280;40708;50.364;7.550;2023-07-13T10:03:15;100441.53;;;27.46;44.57
54808;BME280;40708;50.364;7.550;2023-07-13T10:05:44;100444.09;;;27.74;45.56
54808;BME280;40708;50.364;7.550;2023-07-13T10:08:36;100444.84;;;28.01;45.17
54808;BME280;40708;50.364;7.550;2023-07-13T10:11:27;100449.84;;;27.17;46.09
54808;BME280;40708;50.364;7.550;2023-07-13T10:14:00;100453.22;;;27.60;45.31
54808;BME280;40708;50.364;7.550;2023-07-13T10:16:34;100448.13;;;27.68;45.08
54808;BME280;40708;50.364;7.550;2023-07-13T10:19:09;100438.38;;;27.52;45.02
54808;BME280;40708;50.364;7.550;2023-07-13T10:22:00;100448.97;;;27.30;45.72
54808;BME280;40708;50.364;7.550;2023-07-13T10:24:29;100443.72;;;27.14;45.77
54808;BME280;40708;50.364;7.550;2023-07-13T10:29:32;100453.38;;;25.80;49.00
54808;BME280;40708;50.364;7.550;2023-07-13T10:32:00;100461.63;;;26.07;47.83
54808;BME280;40708;50.364;7.550;2023-07-13T10:34:25;100455.06;;;26.11;48.10
54808;BME280;40708;50.364;7.550;2023-07-13T10:36:51;100455.09;;;26.25;47.30
54808;BME280;40708;50.364;7.550;2023-07-13T10:39:23;100458.84;;;26.08;49.03
54808;BME280;40708;50.364;7.550;2023-07-13T10:41:55;100462.31;;;25.68;47.62
54808;BME280;40708;50.364;7.550;2023-07-13T10:44:25;100463.59;;;25.76;48.91
54808;BME280;40708;50.364;7.550;2023-07-13T10:46:55;100454.19;;;25.82;47.47
54808;BME280;40708;50.364;7.550;2023-07-13T10:49:23;100442.63;;;25.92;46.76
54808;BME280;40708;50.364;7.550;2023-07-13T10:51:48;100463.63;;;26.33;46.49
54808;BME280;40708;50.364;7.550;2023-07-13T10:56:50;100462.25;;;26.95;45.85
54808;BME280;40708;50.364;7.550;2023-07-13T10:59:23;100469.00;;;26.75;46.84
54808;BME280;40708;50.364;7.550;2023-07-13T11:02:26;100470.22;;;26.98;44.65
54808;BME280;40708;50.364;7.550;2023-07-13T11:04:46;100469.53;;;26.53;44.78
54808;BME280;40708;50.364;7.550;2023-07-13T11:07:25;100475.75;;;26.96;44.62
54808;BME280;40708;50.364;7.550;2023-07-13T11:09:57;100478.94;;;26.48;45.61
54808;BME280;40708;50.364;7.550;2023-07-13T11:17:50;100479.31;;;26.56;46.75
54808;BME280;40708;50.364;7.550;2023-07-13T11:22:49;100488.56;;;26.11;50.28
54808;BME280;40708;50.364;7.550;2023-07-13T11:25:27;100482.78;;;26.17;49.28
54808;BME280;40708;50.364;7.550;2023-07-13T11:28:24;100490.38;;;25.96;49.83
54808;BME280;40708;50.364;7.550;2023-07-13T11:33:55;100480.84;;;25.75;50.90
54808;BME280;40708;50.364;7.550;2023-07-13T11:36:24;100488.56;;;26.11;51.39
54808;BME280;40708;50.364;7.550;2023-07-13T11:39:03;100487.22;;;25.74;52.49
54808;BME280;40708;50.364;7.550;2023-07-13T11:41:35;100495.41;;;25.88;51.71
54808;BME280;40708;50.364;7.550;2023-07-13T11:46:37;100498.66;;;25.35;52.59
54808;BME280;40708;50.364;7.550;2023-07-13T11:49:05;100498.41;;;25.09;54.56
54808;BME280;40708;50.364;7.550;2023-07-13T11:51:33;100499.44;;;25.37;53.05
54808;BME280;40708;50.364;7.550;2023-07-13T11:57:06;100497.66;;;25.82;52.22
54808;BME280;40708;50.364;7.550;2023-07-13T11:59:32;100494.28;;;25.92;51.32
54808;BME280;40708;50.364;7.550;2023-07-13T12:01:58;100491.34;;;25.81;51.53
54808;BME280;40708;50.364;7.550;2023-07-13T12:04:26;100488.88;;;25.77;51.88
54808;BME280;40708;50.364;7.550;2023-07-13T12:07:16;100489.84;;;25.62;52.27
54808;BME280;40708;50.364;7.550;2023-07-13T12:09:42;100497.81;;;25.65;52.14
54808;BME280;40708;50.364;7.550;2023-07-13T12:12:17;100493.91;;;25.69;51.04
54808;BME280;40708;50.364;7.550;2023-07-13T12:14:43;100511.22;;;25.52;52.27
54808;BME280;40708;50.364;7.550;2023-07-13T12:17:23;100508.63;;;25.35;51.30
54808;BME280;40708;50.364;7.550;2023-07-13T12:19:50;100493.88;;;25.09;51.98
54808;BME280;40708;50.364;7.550;2023-07-13T12:22:17;100496.28;;;25.29;51.32
54808;BME280;40708;50.364;7.550;2023-07-13T12:24:44;100500.81;;;25.74;50.24
54808;BME280;40708;50.364;7.550;2023-07-13T12:27:21;100499.28;;;25.70;50.45
54808;BME280;40708;50.364;7.550;2023-07-13T12:33:12;100500.72;;;25.62;50.14
54808;BME280;40708;50.364;7.550;2023-07-13T12:35:45;100508.56;;;26.10;49.61
54808;BME280;40708;50.364;7.550;2023-07-13T12:38:11;100508.28;;;26.15;48.28
54808;BME280;40708;50.364;7.550;2023-07-13T12:40:37;100500.88;;;26.02;48.38
54808;BME280;40708;50.364;7.550;2023-07-13T12:43:03;100516.91;;;26.07;49.34
54808;BME280;40708;50.364;7.550;2023-07-13T12:45:31;100516.22;;;26.03;50.51
54808;BME280;40708;50.364;7.550;2023-07-13T12:48:02;100513.69;;;25.86;50.69
54808;BME280;40708;50.364;7.550;2023-07-13T12:50:36;100525.44;;;25.41;52.65
54808;BME280;40708;50.364;7.550;2023-07-13T12:53:03;100530.19;;;25.22;52.34
54808;BME280;40708;50.364;7.550;2023-07-13T12:55:41;100536.97;;;25.00;53.23
54808;BME280;40708;50.364;7.550;2023-07-13T12:58:13;100535.69;;;24.74;53.76
54808;BME280;40708;50.364;7.550;2023-07-13T13:00:48;100536.16;;;24.82;53.83
54808;BME280;40708;50.364;7.550;2023-07-13T13:03:31;100530.72;;;24.98;53.10
54808;BME280;40708;50.364;7.550;2023-07-13T13:06:17;100537.72;;;25.17;52.32
54808;BME280;40708;50.364;7.550;2023-07-13T13:08:46;100534.66;;;25.23;53.76
54808;BME280;40708;50.364;7.550;2023-07-13T13:11:14;100533.63;;;25.10;53.51
54808;BME280;40708;50.364;7.550;2023-07-13T13:13:41;100531.88;;;24.94;54.37
54808;BME280;40708;50.364;7.550;2023-07-13T13:16:23;100544.72;;;24.74;56.03
54808;BME280;40708;50.364;7.550;2023-07-13T13:18:50;100537.00;;;24.67;57.07
54808;BME280;40708;50.364;7.550;2023-07-13T13:21:17;100545.47;;;24.45;57.52
54808;BME280;40708;50.364;7.550;2023-07-13T13:23:43;100546.91;;;24.35;57.74
54808;BME280;40708;50.364;7.550;2023-07-13T13:26:11;100541.00;;;24.44;56.39